Time;durP1;ratioP1;P1;durP2;ratioP2;P2;SDS_P1;SDS_P2;PMS_P1;PMS_P2;Temp;Humidity;BMP_temperature;BMP_pressure;BME280_temperature;BME280_humidity;BME280_pressure;Samples;Min_cycle;Max_cycle;Signal;HPM_P1;HPM_P2
2022/12/03 00:00:55;;;;;;;28.00;17.17;;;;;;;8.46;100.00;100246.09;5113579;27;20198;-65
2022/12/03 00:03:23;;;;;;;25.43;16.77;;;;;;;8.48;100.00;100245.19;5114241;27;20281;-65
2022/12/03 00:05:50;;;;;;;25.87;16.67;;;;;;;8.43;100.00;100236.63;5114267;28;20207;-65
2022/12/03 00:08:18;;;;;;;25.30;15.80;;;;;;;8.52;100.00;100240.84;5112223;28;20310;-65
2022/12/03 00:10:46;;;;;;;25.63;15.73;;;;;;;8.52;100.00;100246.88;5114059;28;20205;-58
2022/12/03 00:13:13;;;;;;;21.90;15.63;;;;;;;8.52;100.00;100252.06;5112363;28;20197;-57
2022/12/03 00:15:40;;;;;;;21.73;14.33;;;;;;;8.58;100.00;100248.56;5112950;28;20625;-64
2022/12/03 00:18:06;;;;;;;26.33;15.13;;;;;;;8.54;100.00;100249.47;5112077;28;20214;-65
2022/12/03 00:20:33;;;;;;;26.23;15.03;;;;;;;8.54;100.00;100252.91;5112415;28;20714;-65
2022/12/03 00:23:00;;;;;;;21.97;15.00;;;;;;;8.54;100.00;100259.81;5112350;28;20234;-65
2022/12/03 00:25:28;;;;;;;25.67;14.97;;;;;;;8.53;100.00;100260.69;5112120;27;20201;-65
2022/12/03 00:27:55;;;;;;;22.60;13.93;;;;;;;8.52;100.00;100259.81;5112052;28;20293;-64
2022/12/03 00:30:22;;;;;;;24.27;14.17;;;;;;;8.65;100.00;100264.03;5112053;28;20670;-65
2022/12/03 00:32:49;;;;;;;25.00;15.23;;;;;;;8.62;100.00;100274.41;5111892;27;20198;-57
2022/12/03 00:35:16;;;;;;;24.80;15.03;;;;;;;8.65;100.00;100266.63;5111940;28;20198;-58
2022/12/03 00:37:43;;;;;;;26.87;16.37;;;;;;;8.55;100.00;100265.00;5111945;28;20218;-59
2022/12/03 00:40:11;;;;;;;27.43;17.30;;;;;;;8.53;100.00;100278.81;5111970;28;20710;-58
2022/12/03 00:42:39;;;;;;;33.33;18.13;;;;;;;8.46;100.00;100275.41;5111979;28;20190;-58
2022/12/03 00:45:07;;;;;;;23.73;15.87;;;;;;;8.40;100.00;100259.94;5111652;28;20201;-59
2022/12/03 00:47:34;;;;;;;25.20;15.37;;;;;;;8.43;100.00;100272.00;5112232;28;20205;-63
2022/12/03 00:50:01;;;;;;;19.73;13.93;;;;;;;8.54;100.00;100276.19;5111731;28;20200;-64
2022/12/03 00:52:28;;;;;;;25.87;15.27;;;;;;;8.55;100.00;100277.94;5111731;28;20191;-64
2022/12/03 00:54:55;;;;;;;18.97;14.20;;;;;;;8.56;100.00;100279.66;5111612;28;20206;-64
2022/12/03 00:57:22;;;;;;;18.23;12.80;;;;;;;8.56;100.00;100283.97;5111558;28;20215;-58
2022/12/03 00:59:50;;;;;;;20.40;12.53;;;;;;;8.57;100.00;100281.38;5111471;28;20559;-58
2022/12/03 01:02:17;;;;;;;18.60;12.30;;;;;;;8.53;100.00;100284.84;5111698;28;20686;-57
2022/12/03 01:04:44;;;;;;;18.13;11.40;;;;;;;8.47;100.00;100284.88;5111450;28;20195;-58
2022/12/03 01:07:11;;;;;;;15.40;11.30;;;;;;;8.47;100.00;100279.69;5111441;28;20201;-58
2022/12/03 01:09:37;;;;;;;18.80;11.53;;;;;;;8.23;100.00;100279.88;5111598;28;20205;-64
2022/12/03 01:12:05;;;;;;;16.27;11.40;;;;;;;8.32;100.00;100288.44;5111424;28;20201;-64
2022/12/03 01:14:31;;;;;;;17.07;11.03;;;;;;;8.33;100.00;100286.72;5111118;28;20201;-64
2022/12/03 01:17:00;;;;;;;21.40;13.07;;;;;;;8.33;100.00;100287.59;5111219;27;20604;-63
2022/12/03 01:19:27;;;;;;;19.80;11.37;;;;;;;8.28;100.00;100285.84;5110639;28;20740;-64
2022/12/03 01:21:54;;;;;;;18.73;11.60;;;;;;;8.42;100.00;100297.00;5111037;27;20221;-64
2022/12/03 01:24:21;;;;;;;21.80;13.07;;;;;;;8.39;100.00;100302.19;5110925;28;20658;-64
2022/12/03 01:26:48;;;;;;;17.70;11.13;;;;;;;8.40;100.00;100309.09;5111085;28;20201;-64
2022/12/03 01:29:15;;;;;;;19.77;13.17;;;;;;;8.32;100.00;100303.97;5110914;28;20563;-64
2022/12/03 01:34:28;;;;;;;23.63;13.10;;;;;;;8.40;100.00;100297.88;5111090;28;20201;-64
2022/12/03 01:36:55;;;;;;;17.60;12.10;;;;;;;8.45;100.00;100294.41;5110687;28;20228;-64
2022/12/03 01:39:22;;;;;;;21.73;12.87;;;;;;;8.49;100.00;100297.78;5110658;27;20201;-62
2022/12/03 01:41:51;;;;;;;22.77;13.30;;;;;;;8.55;100.00;100306.38;5110831;28;20209;-64
2022/12/03 01:44:22;;;;;;;21.63;12.90;;;;;;;8.58;100.00;100305.47;5110846;28;20242;-64
2022/12/03 01:46:50;;;;;;;21.03;12.30;;;;;;;8.52;100.00;100301.22;5110707;28;20198;-64
2022/12/03 01:49:21;;;;;;;22.23;11.60;;;;;;;8.54;100.00;100306.41;5110432;28;20223;-59
2022/12/03 01:51:51;;;;;;;21.87;12.47;;;;;;;8.51;100.00;100307.28;5111040;28;20704;-59
2022/12/03 01:54:21;;;;;;;15.73;11.57;;;;;;;8.55;100.00;100301.22;5110652;28;20190;-57
2022/12/03 01:56:48;;;;;;;19.13;11.53;;;;;;;8.62;100.00;100315.81;5110451;28;20198;-57
2022/12/03 01:59:18;;;;;;;18.60;11.00;;;;;;;8.54;100.00;100311.56;5110587;28;20974;-57
2022/12/03 02:01:45;;;;;;;19.33;12.03;;;;;;;8.47;100.00;100326.25;5110505;28;20307;-57
2022/12/03 02:04:14;;;;;;;20.70;12.50;;;;;;;8.54;100.00;100327.97;5110270;28;20198;-63
2022/12/03 02:06:42;;;;;;;18.93;11.63;;;;;;;8.52;100.00;100321.06;5110389;28;20677;-63
2022/12/03 02:09:12;;;;;;;16.83;11.40;;;;;;;8.45;100.00;100322.84;5110472;28;20631;-57
2022/12/03 02:11:43;;;;;;;22.03;12.40;;;;;;;8.46;100.00;100321.13;5110471;28;20386;-57
2022/12/03 02:14:13;;;;;;;22.87;13.00;;;;;;;8.42;100.00;100322.88;5110374;28;20214;-57
2022/12/03 02:16:42;;;;;;;21.80;12.30;;;;;;;8.37;100.00;100319.44;5110127;28;20199;-56
2022/12/03 02:19:16;;;;;;;20.97;12.17;;;;;;;8.42;100.00;100322.00;5109970;28;20706;-56
2022/12/03 02:21:49;;;;;;;21.17;12.43;;;;;;;8.38;100.00;100328.91;5109937;28;20198;-56
2022/12/03 02:24:24;;;;;;;22.70;13.13;;;;;;;8.32;100.00;100323.81;5110070;28;20198;-57
2022/12/03 02:26:52;;;;;;;21.17;11.87;;;;;;;8.34;100.00;100327.25;5109848;28;20224;-58
2022/12/03 02:29:19;;;;;;;23.30;12.40;;;;;;;8.28;100.00;100324.66;5109653;28;20195;-58
2022/12/03 02:31:46;;;;;;;21.63;11.67;;;;;;;8.28;100.00;100332.41;5109127;28;20202;-58
2022/12/03 02:34:38;;;;;;;24.10;11.53;;;;;;;8.27;100.00;100328.97;5109811;28;20208;-58
2022/12/03 02:37:07;;;;;;;26.07;12.07;;;;;;;8.32;100.00;100329.84;5110124;28;20598;-57
2022/12/03 02:39:38;;;;;;;24.37;12.73;;;;;;;8.25;100.00;100328.09;5109835;28;20205;-57
2022/12/03 02:44:52;;;;;;;25.67;12.77;;;;;;;8.25;100.00;100324.66;5110062;28;20209;-57
2022/12/03 02:47:21;;;;;;;24.50;13.17;;;;;;;8.19;100.00;100319.53;5109540;28;20202;-57
2022/12/03 02:49:48;;;;;;;35.10;14.37;;;;;;;8.20;100.00;100327.28;5109799;28;20195;-57
2022/12/03 02:52:15;;;;;;;25.10;13.40;;;;;;;8.19;100.00;100324.72;5109773;28;20202;-63
2022/12/03 02:54:42;;;;;;;32.70;14.60;;;;;;;8.21;100.00;100328.16;5109839;28;20209;-64
2022/12/03 02:57:10;;;;;;;30.40;13.60;;;;;;;8.21;100.00;100322.97;5109564;28;20223;-64
2022/12/03 02:59:37;;;;;;;33.37;15.23;;;;;;;8.33;100.00;100328.13;5109850;28;20194;-64
2022/12/03 03:02:04;;;;;;;42.03;15.97;;;;;;;8.12;100.00;100317.88;5109643;28;20190;-57
2022/12/03 03:04:31;;;;;;;44.27;16.53;;;;;;;8.11;100.00;100313.56;5109757;28;20207;-57
2022/12/03 03:06:59;;;;;;;48.20;16.63;;;;;;;7.96;100.00;100320.53;5109316;28;20195;-57
2022/12/03 03:09:25;;;;;;;51.67;17.50;;;;;;;7.98;100.00;100305.88;5109877;28;20588;-58
2022/12/03 03:11:52;;;;;;;50.87;17.10;;;;;;;8.02;100.00;100309.28;5091114;28;20192;-63
2022/12/03 03:14:21;;;;;;;47.53;18.17;;;;;;;7.97;100.00;100304.16;5089100;28;20206;-62
2022/12/03 03:16:54;;;;;;;45.30;18.57;;;;;;;8.00;100.00;100309.31;5089206;28;20308;-63
2022/12/03 03:19:22;;;;;;;55.93;18.93;;;;;;;8.02;100.00;100322.22;5088923;28;20698;-63
2022/12/03 03:21:49;;;;;;;60.30;17.63;;;;;;;8.02;100.00;100314.44;5089231;28;20202;-57
2022/12/03 03:24:16;;;;;;;53.90;18.70;;;;;;;7.90;100.00;100327.47;5089063;28;20199;-58
2022/12/03 03:26:43;;;;;;;45.33;17.93;;;;;;;7.91;100.00;100324.00;5089200;28;20286;-58
2022/12/03 03:29:10;;;;;;;54.23;18.63;;;;;;;7.87;100.00;100318.00;5089009;28;20203;-58
2022/12/03 03:31:39;;;;;;;59.60;20.07;;;;;;;7.87;100.00;100317.16;5089109;28;20195;-63
2022/12/03 03:34:07;;;;;;;51.93;18.77;;;;;;;7.87;100.00;100328.34;5088730;28;20206;-64
2022/12/03 03:36:34;;;;;;;50.87;17.80;;;;;;;7.85;100.00;100324.91;5088878;28;20201;-64
2022/12/03 03:39:01;;;;;;;48.60;17.77;;;;;;;7.86;100.00;100321.44;5088714;28;20231;-58
2022/12/03 03:41:30;;;;;;;40.03;16.33;;;;;;;7.89;100.00;100324.03;5088993;28;20199;-64
2022/12/03 03:43:58;;;;;;;45.67;17.53;;;;;;;7.99;100.00;100330.88;5092786;28;20202;-64
2022/12/03 03:46:25;;;;;;;36.07;16.20;;;;;;;7.98;100.00;100338.63;5092514;28;20201;-64
2022/12/03 03:48:53;;;;;;;45.67;17.80;;;;;;;7.92;100.00;100338.63;5092075;28;20205;-63
2022/12/03 03:51:20;;;;;;;41.40;16.47;;;;;;;7.94;100.00;100335.19;5092660;28;20196;-64
2022/12/03 03:53:49;;;;;;;37.93;16.90;;;;;;;7.93;100.00;100337.78;5092633;28;20227;-63
2022/12/03 03:56:18;;;;;;;40.83;16.97;;;;;;;7.96;100.00;100342.94;5092524;28;20231;-63
2022/12/03 03:58:45;;;;;;;41.53;16.97;;;;;;;7.85;100.00;100352.47;5092428;28;20619;-64
2022/12/03 04:01:14;;;;;;;44.73;17.27;;;;;;;7.87;100.00;100351.59;5092149;28;20206;-64
2022/12/03 04:03:41;;;;;;;47.90;18.33;;;;;;;7.92;100.00;100352.44;5092344;28;20199;-64
2022/12/03 04:06:10;;;;;;;52.23;18.63;;;;;;;7.80;100.00;100349.91;5092433;28;20222;-64
2022/12/03 04:08:37;;;;;;;50.63;18.77;;;;;;;7.85;100.00;100355.91;5092356;28;20240;-64
2022/12/03 04:13:48;;;;;;;48.20;17.03;;;;;;;7.93;100.00;100351.56;5092282;28;20199;-64
2022/12/03 04:16:15;;;;;;;44.57;17.83;;;;;;;7.90;100.00;100354.16;5092002;28;20196;-64
2022/12/03 04:18:44;;;;;;;53.00;18.33;;;;;;;7.91;100.00;100353.28;5091913;28;20694;-64
2022/12/03 04:23:59;;;;;;;51.10;18.50;;;;;;;7.89;100.00;100357.63;5091755;28;20606;-65
2022/12/03 04:29:11;;;;;;;55.57;19.10;;;;;;;7.94;100.00;100371.38;5091801;28;20819;-64
2022/12/03 04:37:09;;;;;;;58.67;20.00;;;;;;;7.94;100.00;100370.50;5091584;28;20195;-63
2022/12/03 04:39:36;;;;;;;64.20;20.87;;;;;;;7.96;100.00;100377.41;5091588;28;20227;-64
2022/12/03 04:42:03;;;;;;;60.33;21.40;;;;;;;7.95;100.00;100383.44;5091477;28;20196;-58
2022/12/03 04:44:34;;;;;;;60.90;22.73;;;;;;;7.94;100.00;100375.69;5091987;28;20195;-58
2022/12/03 04:47:03;;;;;;;78.23;23.83;;;;;;;7.96;100.00;100384.31;5091223;28;20297;-64
2022/12/03 04:49:30;;;;;;;63.27;22.90;;;;;;;8.02;100.00;100377.38;5091520;28;20195;-64
2022/12/03 04:51:57;;;;;;;77.70;23.73;;;;;;;7.98;100.00;100367.91;5091478;28;20233;-63
2022/12/03 04:54:26;;;;;;;78.50;23.63;;;;;;;7.96;100.00;100369.66;5090890;28;20199;-64
2022/12/03 04:56:53;;;;;;;72.37;22.60;;;;;;;8.03;100.00;100378.22;5091486;28;20667;-64
2022/12/03 04:59:20;;;;;;;84.77;25.17;;;;;;;7.94;100.00;100370.50;5092311;28;20223;-64
2022/12/03 05:01:46;;;;;;;92.67;26.27;;;;;;;7.98;100.00;100378.25;5111427;28;20224;-58
2022/12/03 05:04:14;;;;;;;102.00;26.50;;;;;;;7.97;100.00;100370.50;5111603;28;20599;-58
2022/12/03 05:06:41;;;;;;;113.93;25.23;;;;;;;7.91;100.00;100379.13;5111764;28;20198;-58
2022/12/03 05:09:08;;;;;;;95.80;25.80;;;;;;;7.82;100.00;100370.56;5111475;28;20198;-58
2022/12/03 05:11:36;;;;;;;86.33;23.10;;;;;;;7.93;100.00;100369.66;5111421;27;20281;-58
2022/12/03 05:14:03;;;;;;;75.03;22.77;;;;;;;7.89;100.00;100373.13;5111089;28;20195;-58
2022/12/03 05:16:30;;;;;;;89.20;23.60;;;;;;;7.80;100.00;100378.31;5111373;27;20194;-58
2022/12/03 05:18:57;;;;;;;77.17;20.13;;;;;;;7.85;100.00;100378.31;5110892;28;20706;-57
2022/12/03 05:21:24;;;;;;;66.40;19.80;;;;;;;7.93;100.00;100392.91;5111383;28;20199;-58
2022/12/03 05:23:51;;;;;;;75.10;20.87;;;;;;;7.89;100.00;100387.78;5111151;28;20234;-58
2022/12/03 05:26:18;;;;;;;85.13;21.73;;;;;;;7.95;100.00;100398.94;5111008;28;20205;-58
2022/12/03 05:28:46;;;;;;;75.70;18.73;;;;;;;7.95;100.00;100401.53;5110834;28;20197;-59
2022/12/03 05:31:13;;;;;;;69.80;19.07;;;;;;;7.89;100.00;100401.56;5110843;28;20201;-58
2022/12/03 05:33:40;;;;;;;64.60;17.80;;;;;;;7.87;100.00;100395.53;5093029;27;20642;-58
2022/12/03 05:36:07;;;;;;;66.70;19.33;;;;;;;7.96;100.00;100407.56;5099782;28;20215;-58
2022/12/03 05:38:34;;;;;;;61.57;18.23;;;;;;;8.06;100.00;100405.81;5110541;28;20231;-58
2022/12/03 05:41:01;;;;;;;69.20;19.37;;;;;;;8.05;100.00;100406.66;5110458;28;20724;-58
2022/12/03 05:43:27;;;;;;;60.57;19.47;;;;;;;8.08;100.00;100409.25;5110444;28;20236;-58
2022/12/03 05:45:55;;;;;;;62.87;19.63;;;;;;;7.90;100.00;100408.44;5110490;28;20690;-58
2022/12/03 05:48:22;;;;;;;59.77;19.50;;;;;;;7.77;100.00;100411.94;5110382;28;20210;-64
2022/12/03 05:50:49;;;;;;;58.67;19.47;;;;;;;7.71;100.00;100408.50;5109862;27;20226;-64
2022/12/03 05:53:17;;;;;;;53.23;19.80;;;;;;;7.62;100.00;100404.22;5110207;28;20236;-65
2022/12/03 05:55:44;;;;;;;58.03;20.40;;;;;;;7.72;100.00;100410.22;5110092;27;20301;-64
2022/12/03 05:58:11;;;;;;;52.13;19.83;;;;;;;7.83;100.00;100411.91;5109809;28;20230;-64
2022/12/03 06:00:38;;;;;;;55.80;17.27;;;;;;;7.85;100.00;100404.16;5109558;27;20272;-63
2022/12/03 06:03:07;;;;;;;40.90;15.00;;;;;;;7.90;100.00;100410.19;5109809;28;20214;-63
2022/12/03 06:05:34;;;;;;;47.33;15.00;;;;;;;7.86;100.00;100413.63;5104949;27;20713;-63
2022/12/03 06:08:01;;;;;;;38.30;15.40;;;;;;;7.84;100.00;100423.13;5089712;28;20219;-64
2022/12/03 06:10:29;;;;;;;44.97;15.60;;;;;;;7.96;100.00;100429.09;5089581;28;20219;-64
2022/12/03 06:12:56;;;;;;;34.20;16.60;;;;;;;8.18;100.00;100431.59;5089983;28;20229;-64
2022/12/03 06:15:23;;;;;;;33.03;15.43;;;;;;;8.23;100.00;100435.03;5088984;28;20219;-65
2022/12/03 06:17:50;;;;;;;30.10;14.77;;;;;;;8.23;100.00;100430.72;5088642;28;20250;-64
2022/12/03 06:20:20;;;;;;;22.77;14.43;;;;;;;8.07;100.00;100443.72;5087830;28;20476;-65
2022/12/03 06:22:47;;;;;;;21.00;12.57;;;;;;;8.07;100.00;100441.13;5089258;28;20261;-59
2022/12/03 06:25:16;;;;;;;22.13;12.63;;;;;;;8.00;100.00;100438.59;5109146;28;20237;-58
2022/12/03 06:27:43;;;;;;;20.57;12.33;;;;;;;8.12;100.00;100439.41;5109420;28;20219;-58
2022/12/03 06:30:12;;;;;;;17.17;11.97;;;;;;;8.23;100.00;100447.97;5107891;28;20200;-58
2022/12/03 06:32:39;;;;;;;19.80;13.13;;;;;;;8.21;100.00;100445.38;5107625;28;20198;-65
2022/12/03 06:35:06;;;;;;;21.57;12.23;;;;;;;8.19;100.00;100429.00;5109603;28;20585;-64
2022/12/03 06:37:35;;;;;;;23.80;12.37;;;;;;;8.40;100.00;100453.09;5109659;28;20508;-64
2022/12/03 06:40:02;;;;;;;20.30;12.00;;;;;;;8.46;100.00;100448.75;5109068;28;20305;-64
2022/12/03 06:42:29;;;;;;;14.63;10.87;;;;;;;8.44;100.00;100452.22;5109934;28;20190;-65
2022/12/03 06:44:56;;;;;;;14.13;10.03;;;;;;;8.45;100.00;100456.53;5109906;28;20588;-66
2022/12/03 06:47:22;;;;;;;17.67;10.67;;;;;;;8.37;100.00;100446.19;5109608;28;20202;-64
2022/12/03 06:49:49;;;;;;;19.43;12.30;;;;;;;8.40;100.00;100450.50;5109589;28;20194;-65
2022/12/03 06:52:16;;;;;;;19.83;11.93;;;;;;;8.27;100.00;100452.25;5109535;28;20693;-64
2022/12/03 06:54:45;;;;;;;14.97;11.20;;;;;;;8.34;100.00;100452.25;5109695;28;20206;-63
2022/12/03 06:57:11;;;;;;;19.43;11.77;;;;;;;8.38;100.00;100455.69;5108547;28;20190;-64
2022/12/03 06:59:38;;;;;;;19.27;12.97;;;;;;;8.41;100.00;100463.44;5109103;28;20214;-64
2022/12/03 07:02:05;;;;;;;21.67;12.33;;;;;;;8.37;100.00;100465.16;5106350;28;20289;-64
2022/12/03 07:04:32;;;;;;;16.13;11.07;;;;;;;8.37;100.00;100465.16;5108104;28;20194;-64
2022/12/03 07:06:59;;;;;;;15.93;9.20;;;;;;;8.45;100.00;100462.56;5108337;28;20194;-65
2022/12/03 07:09:26;;;;;;;17.20;9.13;;;;;;;8.52;100.00;100474.59;5107983;28;20195;-64
2022/12/03 07:11:54;;;;;;;17.00;9.50;;;;;;;8.58;100.00;100469.38;5108236;28;20187;-73
2022/12/03 07:14:21;;;;;;;17.10;10.03;;;;;;;8.59;100.00;100465.91;5107830;28;20194;-72
2022/12/03 07:16:48;;;;;;;16.63;9.57;;;;;;;8.64;100.00;100460.72;5109196;28;20205;-72
2022/12/03 07:19:15;;;;;;;14.27;8.30;;;;;;;8.66;100.00;100464.16;5112877;28;20623;-72
2022/12/03 07:21:42;;;;;;;18.80;10.73;;;;;;;8.79;100.00;100458.06;5113304;28;20202;-72
2022/12/03 07:24:09;;;;;;;18.87;10.30;;;;;;;8.74;100.00;100459.78;5113235;28;20197;-73
2022/12/03 07:26:36;;;;;;;17.50;9.57;;;;;;;8.73;100.00;100461.53;5113004;27;20454;-73
2022/12/03 07:29:04;;;;;;;13.53;9.40;;;;;;;8.72;100.00;100466.69;5113037;28;20195;-72
2022/12/03 07:31:31;;;;;;;18.80;10.23;;;;;;;8.69;100.00;100464.97;5113103;28;20199;-72
2022/12/03 07:33:58;;;;;;;16.47;9.63;;;;;;;8.74;100.00;100470.16;5110451;28;20195;-73
2022/12/03 07:36:25;;;;;;;21.50;12.07;;;;;;;8.82;100.00;100472.69;5111582;28;20198;-73
2022/12/03 07:38:52;;;;;;;19.27;11.47;;;;;;;8.86;100.00;100474.38;5109276;28;20202;-72
2022/12/03 07:41:19;;;;;;;18.07;10.77;;;;;;;8.88;100.00;100478.69;5111412;28;20191;-61
2022/12/03 07:43:46;;;;;;;21.57;10.73;;;;;;;8.94;100.00;100477.78;5111642;28;20195;-61
2022/12/03 07:46:14;;;;;;;19.03;10.77;;;;;;;8.90;100.00;100481.28;5108718;28;20195;-62
2022/12/03 07:48:41;;;;;;;20.03;10.93;;;;;;;8.96;100.00;100470.88;5111330;28;20191;-62
2022/12/03 07:51:08;;;;;;;21.33;11.83;;;;;;;9.04;100.00;100476.84;5111281;28;20197;-72
2022/12/03 07:53:35;;;;;;;21.57;11.80;;;;;;;9.08;100.00;100478.53;5112120;27;20209;-70
2022/12/03 07:56:03;;;;;;;21.23;12.43;;;;;;;9.08;100.00;100475.97;5112747;28;20199;-70
2022/12/03 07:58:30;;;;;;;18.37;11.47;;;;;;;9.03;100.00;100478.56;5112083;28;20191;-70
2022/12/03 08:00:58;;;;;;;20.00;12.50;;;;;;;9.13;100.00;100475.94;5108973;28;20228;-71
2022/12/03 08:03:26;;;;;;;21.97;12.27;;;;;;;9.19;100.00;100471.56;5112189;28;20187;-70
2022/12/03 08:05:53;;;;;;;21.27;12.10;;;;;;;9.15;100.00;100474.16;5112326;28;20190;-70
2022/12/03 08:08:20;;;;;;;23.83;13.83;;;;;;;9.16;100.00;100474.16;5111918;28;20254;-68
2022/12/03 08:10:47;;;;;;;26.97;16.20;;;;;;;9.13;100.00;100479.38;5112477;28;20230;-70
2022/12/03 08:13:15;;;;;;;26.47;15.10;;;;;;;9.13;100.00;100481.97;5112351;28;20201;-70
2022/12/03 08:15:42;;;;;;;21.03;14.40;;;;;;;9.21;100.00;100487.09;5112381;28;20281;-70
2022/12/03 08:18:14;;;;;;;25.33;17.20;;;;;;;9.25;100.00;100473.25;5112360;28;20199;-70
2022/12/03 08:20:45;;;;;;;30.73;17.13;;;;;;;9.32;100.00;100478.34;5112132;28;20248;-60
2022/12/03 08:23:14;;;;;;;28.37;18.37;;;;;;;9.34;100.00;100475.75;5112114;27;20194;-59
2022/12/03 08:25:42;;;;;;;27.53;18.77;;;;;;;9.48;100.00;100482.50;5112205;28;20194;-58
2022/12/03 08:28:13;;;;;;;24.63;16.90;;;;;;;9.53;100.00;100479.03;5111707;28;20201;-57
2022/12/03 08:30:41;;;;;;;21.23;14.23;;;;;;;9.53;100.00;100486.81;5111453;28;20201;-57
2022/12/03 08:33:17;;;;;;;21.20;14.40;;;;;;;9.61;100.00;100472.03;5100968;28;20250;-58
2022/12/03 08:35:50;;;;;;;22.97;13.87;;;;;;;9.67;100.00;100472.00;5103093;28;20781;-57
2022/12/03 08:38:20;;;;;;;18.87;13.07;;;;;;;9.69;100.00;100471.13;5110260;28;20198;-58
2022/12/03 08:40:49;;;;;;;17.80;14.10;;;;;;;9.77;100.00;100481.41;5111051;27;20211;-61
2022/12/03 08:43:20;;;;;;;23.47;15.40;;;;;;;9.83;100.00;100483.91;5112213;28;20260;-68
2022/12/03 08:45:48;;;;;;;35.60;19.33;;;;;;;9.90;100.00;100485.59;5112408;28;20666;-68
2022/12/03 08:48:26;;;;;;;27.47;16.10;;;;;;;10.05;100.00;100493.19;5111362;28;20670;-69
2022/12/03 08:50:56;;;;;;;21.47;15.30;;;;;;;10.10;100.00;100488.81;5111600;28;20206;-70
2022/12/03 08:53:37;;;;;;;20.20;14.77;;;;;;;10.05;100.00;100490.59;5112188;27;20199;-70
2022/12/03 08:56:14;;;;;;;30.20;19.50;;;;;;;10.02;100.00;100495.84;5091242;28;20231;-68
2022/12/03 08:58:43;;;;;;;20.93;14.73;;;;;;;10.08;100.00;100487.97;5111200;28;20202;-71
2022/12/03 09:01:30;;;;;;;18.57;13.47;;;;;;;9.78;100.00;100483.13;5109396;28;20194;-68
2022/12/03 09:04:05;;;;;;;20.23;14.07;;;;;;;9.54;100.00;100468.66;5111646;27;20600;-68
2022/12/03 09:06:33;;;;;;;20.67;13.83;;;;;;;9.72;100.00;100475.38;5111699;28;20194;-69
2022/12/03 09:09:00;;;;;;;17.63;13.10;;;;;;;9.66;100.00;100475.47;5111091;28;20289;-67
2022/12/03 09:11:27;;;;;;;21.23;13.40;;;;;;;9.62;100.00;100464.25;5111153;28;20205;-68
2022/12/03 09:13:54;;;;;;;19.10;13.30;;;;;;;9.79;100.00;100472.75;5111019;28;20205;-67
2022/12/03 09:16:21;;;;;;;18.20;13.33;;;;;;;9.84;100.00;100465.75;5111225;28;20486;-68
2022/12/03 09:18:48;;;;;;;16.53;12.47;;;;;;;9.82;100.00;100466.63;5111037;28;20226;-67
2022/12/03 09:21:14;;;;;;;18.67;11.77;;;;;;;9.64;100.00;100464.25;5110999;28;20201;-68
2022/12/03 09:23:43;;;;;;;18.97;12.70;;;;;;;9.57;100.00;100458.28;5111185;28;20205;-68
2022/12/03 09:26:10;;;;;;;16.57;12.77;;;;;;;9.71;100.00;100468.47;5111104;28;20286;-68
2022/12/03 09:28:36;;;;;;;26.27;18.97;;;;;;;9.76;100.00;100464.13;5110868;28;20654;-68
2022/12/03 09:31:03;;;;;;;18.30;13.17;;;;;;;9.83;100.00;100469.22;5110777;28;20202;-68
2022/12/03 09:33:31;;;;;;;18.83;10.53;;;;;;;9.86;100.00;100454.50;5111045;28;20667;-67
2022/12/03 09:35:58;;;;;;;15.97;10.43;;;;;;;9.92;100.00;100457.91;5110987;28;20245;-66
2022/12/03 09:38:25;;;;;;;15.57;11.33;;;;;;;9.91;100.00;100461.38;5110731;28;20198;-66
2022/12/03 09:40:54;;;;;;;15.40;11.80;;;;;;;10.01;100.00;100454.34;5110446;28;20702;-67
2022/12/03 09:43:21;;;;;;;15.10;12.20;;;;;;;10.02;100.00;100431.00;5110827;28;20209;-67
2022/12/03 09:45:49;;;;;;;15.23;11.33;;;;;;;10.20;100.00;100453.28;5110148;28;20187;-67
2022/12/03 09:48:18;;;;;;;18.53;11.70;;;;;;;10.07;100.00;100438.69;5110329;28;20206;-70
2022/12/03 09:50:46;;;;;;;14.63;11.10;;;;;;;10.26;100.00;100445.44;5111183;28;20201;-71
2022/12/03 09:53:17;;;;;;;14.97;11.33;;;;;;;10.30;100.00;100436.72;5110899;28;20204;-68
2022/12/03 09:55:45;;;;;;;14.53;11.23;;;;;;;10.29;100.00;100442.78;5110529;28;20190;-68
2022/12/03 09:58:15;;;;;;;17.43;11.57;;;;;;;10.31;100.00;100437.56;5110595;28;20190;-66
2022/12/03 10:00:43;;;;;;;16.67;11.13;;;;;;;10.29;100.00;100441.91;5110522;28;20214;-67
2022/12/03 10:03:14;;;;;;;20.67;13.47;;;;;;;10.38;100.00;100440.09;5110468;28;20204;-68
2022/12/03 10:05:40;;;;;;;15.03;11.83;;;;;;;10.34;100.00;100441.00;5110649;28;20724;-68
2022/12/03 10:08:10;;;;;;;18.67;12.17;;;;;;;10.37;100.00;100440.09;5110131;28;20194;-68
2022/12/03 10:10:39;;;;;;;18.63;12.47;;;;;;;10.39;100.00;100433.13;5099313;28;20227;-67
2022/12/03 10:13:10;;;;;;;24.83;17.73;;;;;;;10.53;100.00;100445.06;5092516;28;20226;-69
2022/12/03 10:15:38;;;;;;;23.33;14.13;;;;;;;10.50;100.00;100441.63;5109589;28;20313;-67
2022/12/03 10:18:16;;;;;;;26.67;13.37;;;;;;;10.55;100.00;100439.84;5109710;28;20315;-60
2022/12/03 10:20:43;;;;;;;23.97;12.90;;;;;;;10.44;100.00;100437.41;5109356;28;20236;-59
2022/12/03 10:23:18;;;;;;;17.07;11.20;;;;;;;10.35;100.00;100441.84;5109460;28;20285;-59
2022/12/03 10:25:51;;;;;;;23.13;13.43;;;;;;;10.31;100.00;100428.03;5109631;28;20226;-67
2022/12/03 10:28:28;;;;;;;22.20;13.07;;;;;;;10.32;100.00;100426.31;5109375;28;20206;-69
2022/12/03 10:30:57;;;;;;;28.10;13.07;;;;;;;10.27;100.00;100423.75;5109905;28;20193;-66
2022/12/03 10:33:30;;;;;;;24.37;14.40;;;;;;;10.29;100.00;100418.56;5109886;28;20225;-67
2022/12/03 10:36:13;;;;;;;25.43;12.77;;;;;;;10.33;100.00;100423.69;5109916;28;20210;-68
2022/12/03 10:38:40;;;;;;;19.10;12.30;;;;;;;10.29;100.00;100419.41;5110080;28;20574;-66
2022/12/03 10:41:21;;;;;;;20.43;12.30;;;;;;;10.28;100.00;100415.09;5109474;28;20724;-59
2022/12/03 10:43:48;;;;;;;27.23;16.00;;;;;;;10.23;100.00;100421.25;5109853;28;20634;-58
2022/12/03 10:46:19;;;;;;;35.87;24.30;;;;;;;10.19;100.00;100412.63;5109843;28;20202;-59
2022/12/03 10:48:46;;;;;;;36.40;19.37;;;;;;;10.21;100.00;100413.47;5107340;28;20201;-59
2022/12/03 10:51:19;;;;;;;36.40;16.60;;;;;;;10.21;100.00;100421.25;5109077;28;20194;-59
2022/12/03 10:53:47;;;;;;;30.83;14.50;;;;;;;10.22;100.00;100425.59;5109239;28;20199;-59
2022/12/03 10:56:21;;;;;;;41.70;16.23;;;;;;;10.10;100.00;100423.97;5109899;28;20285;-59
2022/12/03 10:58:48;;;;;;;46.70;17.53;;;;;;;9.93;100.00;100422.47;5109693;28;20202;-59
2022/12/03 11:01:19;;;;;;;40.77;14.77;;;;;;;9.92;100.00;100416.41;5109828;28;20601;-59
2022/12/03 11:03:46;;;;;;;40.90;15.33;;;;;;;9.81;100.00;100420.88;5109472;28;20198;-59
2022/12/03 11:06:16;;;;;;;39.93;17.40;;;;;;;9.79;100.00;100423.47;5109408;28;20204;-60
2022/12/03 11:08:46;;;;;;;45.37;15.40;;;;;;;9.71;100.00;100419.22;5109608;28;20195;-58
2022/12/03 11:11:18;;;;;;;30.77;12.37;;;;;;;9.78;100.00;100423.50;5109617;28;20202;-69
2022/12/03 11:13:51;;;;;;;31.77;13.53;;;;;;;9.81;100.00;100423.47;5102230;28;20727;-70
2022/12/03 11:17:07;;;;;;;32.43;14.70;;;;;;;9.82;100.00;100425.16;5088874;28;20629;-59
2022/12/03 11:19:48;;;;;;;40.13;15.77;;;;;;;10.00;100.00;100404.22;5088841;28;20223;-58
2022/12/03 11:22:43;;;;;;;28.60;15.63;;;;;;;10.09;100.00;100413.59;5088840;28;20248;-59
2022/12/03 11:25:56;;;;;;;25.90;14.03;;;;;;;10.07;100.00;100413.63;5052327;28;20206;-59
2022/12/03 11:28:53;;;;;;;22.70;14.23;;;;;;;10.00;100.00;100396.44;5088742;28;20664;-60
2022/12/03 11:31:41;;;;;;;27.73;13.63;;;;;;;10.08;100.00;100409.28;5088825;28;20245;-59
2022/12/03 11:34:46;;;;;;;20.90;13.70;;;;;;;10.17;100.00;100410.03;5088958;28;20205;-59
2022/12/03 11:37:26;;;;;;;17.87;12.10;;;;;;;10.23;100.00;100416.06;5089011;28;20326;-68